Granville, ND (58741)

6:44 AM CST on December 22, 2014 (GMT -0600)
Deering Mobile Home Estates | Change Station
CLOSE
Current Station
Personal Weather Station
Location: Deering, ND
Elevation: 1549 ft
Nearby Weather Stations
Active Advisory: Special Statement

Elev 1549 ft 48.40 °N, 101.05 °W | Updated 12 minutes ago

Overcast
Overcast
27.9 °F
Feels Like 28 °F
N
0.0
Wind Variable Wind from ENE

Today
High -- | Low -- °F
--% Chance of Precip.
Yesterday
High -- | Low -- °F
Precip. -- in
8:31 AM 4:51 PM
New Moon, 0% visible
Pressure 29.47 in
Visibility 1.5 miles
Clouds Overcast 200 ft
Windchill 28 °F
Dew Point 26 °F
Humidity 94%
Rainfall 0.00 in
Snow Depth Not available.
UV 0 out of 12
Pollen .10 out of 12
Air Quality Not available.
Flu Activity Not available.
SPECI KMOT 221237Z AUTO 00000KT 1 1/2SM BR OVC002 M02/M03 A2947 RMK AO2 I1000 T10221028

More Conditions Fewer Conditions

Pressure 29.47 in
Visibility 1.5 miles
Clouds Overcast 200 ft
Windchill 28 °F
Dew Point 26 °F
Humidity 94%
Rainfall 0.00 in
Snow Depth Not available.
UV 0 out of 12
Pollen .10 out of 12
Air Quality Not available.
Flu Activity Not available.
SPECI KMOT 221237Z AUTO 00000KT 1 1/2SM BR OVC002 M02/M03 A2947 RMK AO2 I1000 T10221028

More Conditions Fewer Conditions

10-Day Weather Forecast

Almanac

Astronomy

Dec. 22, 2014 Rise Set
Actual Time
Civil Twilight
Nautical Twilight
Astronomical Twilight
Moon
Length of Visible Light
Length of Day
Tomorrow will be .
, % of the Moon is Illuminated

Today's Extremes

State Highs State Lows

Community

WunderPhotos

Upload Photos

1,779,598 photos uploaded!

WunderBlogs® & News

Nearby

Air Quality

  Air Quality AQ Index Pollutant
Not available.

Snow Depth

Station Depth Elevation

Earthquake Activity

City Distance Mag. Time & Date
Minimum magnitude displayed is 2.5.

Coastal Water Temperatures

Place Temperature

Nearby Weather Stations